Lifesong — WDH4292 — position and weather

sailwx.info

Track history (hours):
 
Tides and Currents Weather Stations Pressure Air Temp Water Temp Dewpoint Dewpoint Depression Visibility Wind Speed Wind Dir Waves Ship Positions

Lifesong

Owner: Hempstead, Shelley N, Wadmalaw Island, SC. More information available from US FCC via Universal Licensing System and Coast Guard Vessel Documentation Center.

Last reported at 2018-Jun-22 18:42 UTC. Time now 2018-Jun-23 15:44 UTC.
Position N 48°25' W 123°17'.

Type: Pleasure craft. MMSI: 367616190.

Date/timePositionNaut miles runAvg speedWind from/ knotsBaromVisibWave heightAir tempDewpointWater temp
2018-Jun-22 18:42N 48°25' W 123°17'2 9.9
2018-Jun-22 18:30N 48°27' W 123°15'116 2.5
2018-Jun-20 19:56N 50°04' W 124°52'510.7
2018-Jun-20 19:30N 50°09' W 124°53'510.7
2018-Jun-20 19:00N 50°13' W 124°58'510.9
2018-Jun-20 18:30N 50°17' W 125°03'610.8
2018-Jun-20 17:58N 50°22' W 125°09'  
2018-Jun-16 20:11N 50°24' W 125°11'1 4.7
2018-Jun-16 19:52N 50°24' W 125°09'3 7.9
2018-Jun-16 19:30N 50°21' W 125°08'4 7.9
2018-Jun-16 19:00N 50°17' W 125°05'5 9.2
2018-Jun-16 18:30N 50°13' W 125°01'3 6.5
2018-Jun-16 18:00N 50°10' W 125°00'3 6.9
2018-Jun-16 17:30N 50°08' W 125°04'2 4.6
2018-Jun-16 17:00N 50°06' W 125°03'1 2.2
2018-Jun-16 16:29N 50°06' W 125°01'0 0.0
2018-Jun-16 15:59N 50°06' W 125°01'0 0.0
2018-Jun-16 15:29N 50°06' W 125°01'0 0.0
2018-Jun-16 14:59N 50°06' W 125°01'0 0.0
2018-Jun-16 14:29N 50°06' W 125°01'0 0.0
2018-Jun-16 13:59N 50°06' W 125°01'0 0.0
2018-Jun-16 13:29N 50°06' W 125°01'0 0.0
2018-Jun-16 12:59N 50°06' W 125°01'0 0.0
2018-Jun-16 12:29N 50°06' W 125°01'0 0.0
2018-Jun-16 11:59N 50°06' W 125°01'0 0.0
2018-Jun-16 11:29N 50°06' W 125°01'0 0.0
2018-Jun-16 10:59N 50°06' W 125°01'0 0.0
2018-Jun-16 10:29N 50°06' W 125°01'0 0.0
2018-Jun-16 09:59N 50°06' W 125°01'0 0.0
2018-Jun-16 09:29N 50°06' W 125°01'0 0.0
2018-Jun-16 08:59N 50°06' W 125°01'0 0.0
2018-Jun-16 08:29N 50°06' W 125°01'0 0.0
2018-Jun-16 07:59N 50°06' W 125°01'0 0.0
2018-Jun-16 07:29N 50°06' W 125°01'0 0.0
2018-Jun-16 06:59N 50°06' W 125°01'0 0.0
2018-Jun-16 06:29N 50°06' W 125°01'0 0.0
2018-Jun-16 05:59N 50°06' W 125°01'0 0.0
2018-Jun-16 05:29N 50°06' W 125°01'0 0.0
2018-Jun-16 04:59N 50°06' W 125°01'0 0.0
2018-Jun-16 04:29N 50°06' W 125°01'0 0.0
2018-Jun-16 03:59N 50°06' W 125°01'0 0.0
2018-Jun-16 03:29N 50°06' W 125°01'0 0.0
2018-Jun-16 02:59N 50°06' W 125°01'0 0.0
2018-Jun-16 02:29N 50°06' W 125°01'0 0.0
2018-Jun-16 01:59N 50°06' W 125°01'0 0.0
2018-Jun-16 01:29N 50°06' W 125°01'0 0.0
2018-Jun-16 00:59N 50°06' W 125°01'0 0.0
2018-Jun-16 00:29N 50°06' W 125°01'0 0.0
2018-Jun-15 23:59N 50°06' W 125°01'0 0.0
2018-Jun-15 23:29N 50°06' W 125°01'0 0.0
2018-Jun-15 22:59N 50°06' W 125°01'0 0.0
2018-Jun-15 22:29N 50°06' W 125°01'0 0.0
2018-Jun-15 21:59N 50°06' W 125°01'0 0.0
2018-Jun-15 21:29N 50°06' W 125°01'0 0.0
2018-Jun-15 20:59N 50°06' W 125°01'0 0.0
2018-Jun-15 20:29N 50°06' W 125°01'0 0.0
2018-Jun-15 19:59N 50°06' W 125°01'0 0.0
2018-Jun-15 19:29N 50°06' W 125°01'0 0.0
2018-Jun-15 18:59N 50°06' W 125°01'0 0.0
2018-Jun-15 18:29N 50°06' W 125°01'0 0.0
2018-Jun-15 17:59N 50°06' W 125°01'0 0.1
2018-Jun-15 17:29N 50°06' W 125°01'0 0.0
2018-Jun-15 16:56N 50°06' W 125°01'0 0.0
2018-Jun-15 16:29N 50°06' W 125°01'0 0.0
2018-Jun-15 15:59N 50°06' W 125°01'0 0.0
2018-Jun-15 15:29N 50°06' W 125°01'0 0.0
2018-Jun-15 14:59N 50°06' W 125°01'0 0.0
2018-Jun-15 14:29N 50°06' W 125°01'0 0.0
2018-Jun-15 13:59N 50°06' W 125°01'0 0.0
2018-Jun-15 13:29N 50°06' W 125°01'0 0.0
2018-Jun-15 12:59N 50°06' W 125°01'0 0.0
2018-Jun-15 12:29N 50°06' W 125°01'0 0.0
2018-Jun-15 11:59N 50°06' W 125°01'0 0.0
2018-Jun-15 11:29N 50°06' W 125°01'0 0.0
2018-Jun-15 10:59N 50°06' W 125°01'0 0.0
2018-Jun-15 10:29N 50°06' W 125°01'0 0.0
2018-Jun-15 09:59N 50°06' W 125°01'0 0.0
2018-Jun-15 09:29N 50°06' W 125°01'0 0.0
2018-Jun-15 08:59N 50°06' W 125°01'0 0.0
2018-Jun-15 08:29N 50°06' W 125°01'0 0.0
2018-Jun-15 07:59N 50°06' W 125°01'0 0.0
2018-Jun-15 07:29N 50°06' W 125°01'0 0.0
2018-Jun-15 06:59N 50°06' W 125°01'0 0.0
2018-Jun-15 06:23N 50°06' W 125°01'0 0.0
2018-Jun-15 05:59N 50°06' W 125°01'0 0.0
2018-Jun-15 05:29N 50°06' W 125°01'0 0.0
2018-Jun-15 04:59N 50°06' W 125°01'0 0.0
2018-Jun-15 04:29N 50°06' W 125°01'0 0.0
2018-Jun-15 03:56N 50°06' W 125°01'0 0.0
2018-Jun-15 03:29N 50°06' W 125°01'0 0.0
2018-Jun-15 02:59N 50°06' W 125°01'0 0.0
2018-Jun-15 02:29N 50°06' W 125°01'0 0.0
2018-Jun-15 01:59N 50°06' W 125°01'0 0.0
2018-Jun-15 01:29N 50°06' W 125°01'0 0.0
2018-Jun-15 00:59N 50°06' W 125°01'0 0.0
2018-Jun-15 00:29N 50°06' W 125°01'0 0.0
2018-Jun-14 23:59N 50°06' W 125°01'0 0.0
2018-Jun-14 23:29N 50°06' W 125°01'2 3.7
2018-Jun-14 23:00N 50°04' W 125°01'510.0
2018-Jun-14 22:30N 49°59' W 125°00'611.0
2018-Jun-14 21:59N 49°55' W 124°53'610.7
2018-Jun-14 21:27N 49°54' W 124°45'510.3
2018-Jun-14 20:59N 49°53' W 124°38'67 2.6
2018-Jun-13 19:19N 49°19' W 123°08'  
Track history (hours):
 
Tides and Currents Weather Stations Pressure Air Temp Water Temp Dewpoint Dewpoint Depression Visibility Wind Speed Wind Dir Waves Ship Positions

Lifesong

Owner: Hempstead, Shelley N, Wadmalaw Island, SC. More information available from US FCC via Universal Licensing System and Coast Guard Vessel Documentation Center.

Last reported at 2018-Jun-22 18:42 UTC. Time now 2018-Jun-23 15:44 UTC.
Position N 48°25' W 123°17'.

Type: Pleasure craft. MMSI: 367616190.

Date/timePositionNaut miles runAvg speedWind from/ knotsBaromVisibWave heightAir tempDewpointWater temp
2018-Jun-22 18:42N 48°25' W 123°17'2 9.9
2018-Jun-22 18:30N 48°27' W 123°15'116 2.5
2018-Jun-20 19:56N 50°04' W 124°52'510.7
2018-Jun-20 19:30N 50°09' W 124°53'510.7
2018-Jun-20 19:00N 50°13' W 124°58'510.9
2018-Jun-20 18:30N 50°17' W 125°03'610.8
2018-Jun-20 17:58N 50°22' W 125°09'  
2018-Jun-16 20:11N 50°24' W 125°11'1 4.7
2018-Jun-16 19:52N 50°24' W 125°09'3 7.9
2018-Jun-16 19:30N 50°21' W 125°08'4 7.9
2018-Jun-16 19:00N 50°17' W 125°05'5 9.2
2018-Jun-16 18:30N 50°13' W 125°01'3 6.5
2018-Jun-16 18:00N 50°10' W 125°00'3 6.9
2018-Jun-16 17:30N 50°08' W 125°04'2 4.6
2018-Jun-16 17:00N 50°06' W 125°03'1 2.2
2018-Jun-16 16:29N 50°06' W 125°01'0 0.0
2018-Jun-16 15:59N 50°06' W 125°01'0 0.0
2018-Jun-16 15:29N 50°06' W 125°01'0 0.0
2018-Jun-16 14:59N 50°06' W 125°01'0 0.0
2018-Jun-16 14:29N 50°06' W 125°01'0 0.0
2018-Jun-16 13:59N 50°06' W 125°01'0 0.0
2018-Jun-16 13:29N 50°06' W 125°01'0 0.0
2018-Jun-16 12:59N 50°06' W 125°01'0 0.0
2018-Jun-16 12:29N 50°06' W 125°01'0 0.0
2018-Jun-16 11:59N 50°06' W 125°01'0 0.0
2018-Jun-16 11:29N 50°06' W 125°01'0 0.0
2018-Jun-16 10:59N 50°06' W 125°01'0 0.0
2018-Jun-16 10:29N 50°06' W 125°01'0 0.0
2018-Jun-16 09:59N 50°06' W 125°01'0 0.0
2018-Jun-16 09:29N 50°06' W 125°01'0 0.0
2018-Jun-16 08:59N 50°06' W 125°01'0 0.0
2018-Jun-16 08:29N 50°06' W 125°01'0 0.0
2018-Jun-16 07:59N 50°06' W 125°01'0 0.0
2018-Jun-16 07:29N 50°06' W 125°01'0 0.0
2018-Jun-16 06:59N 50°06' W 125°01'0 0.0
2018-Jun-16 06:29N 50°06' W 125°01'0 0.0
2018-Jun-16 05:59N 50°06' W 125°01'0 0.0
2018-Jun-16 05:29N 50°06' W 125°01'0 0.0
2018-Jun-16 04:59N 50°06' W 125°01'0 0.0
2018-Jun-16 04:29N 50°06' W 125°01'0 0.0
2018-Jun-16 03:59N 50°06' W 125°01'0 0.0
2018-Jun-16 03:29N 50°06' W 125°01'0 0.0
2018-Jun-16 02:59N 50°06' W 125°01'0 0.0
2018-Jun-16 02:29N 50°06' W 125°01'0 0.0
2018-Jun-16 01:59N 50°06' W 125°01'0 0.0
2018-Jun-16 01:29N 50°06' W 125°01'0 0.0
2018-Jun-16 00:59N 50°06' W 125°01'0 0.0
2018-Jun-16 00:29N 50°06' W 125°01'0 0.0
2018-Jun-15 23:59N 50°06' W 125°01'0 0.0
2018-Jun-15 23:29N 50°06' W 125°01'0 0.0
2018-Jun-15 22:59N 50°06' W 125°01'0 0.0
2018-Jun-15 22:29N 50°06' W 125°01'0 0.0
2018-Jun-15 21:59N 50°06' W 125°01'0 0.0
2018-Jun-15 21:29N 50°06' W 125°01'0 0.0
2018-Jun-15 20:59N 50°06' W 125°01'0 0.0
2018-Jun-15 20:29N 50°06' W 125°01'0 0.0
2018-Jun-15 19:59N 50°06' W 125°01'0 0.0
2018-Jun-15 19:29N 50°06' W 125°01'0 0.0
2018-Jun-15 18:59N 50°06' W 125°01'0 0.0
2018-Jun-15 18:29N 50°06' W 125°01'0 0.0
2018-Jun-15 17:59N 50°06' W 125°01'0 0.1
2018-Jun-15 17:29N 50°06' W 125°01'0 0.0
2018-Jun-15 16:56N 50°06' W 125°01'0 0.0
2018-Jun-15 16:29N 50°06' W 125°01'0 0.0
2018-Jun-15 15:59N 50°06' W 125°01'0 0.0
2018-Jun-15 15:29N 50°06' W 125°01'0 0.0
2018-Jun-15 14:59N 50°06' W 125°01'0 0.0
2018-Jun-15 14:29N 50°06' W 125°01'0 0.0
2018-Jun-15 13:59N 50°06' W 125°01'0 0.0
2018-Jun-15 13:29N 50°06' W 125°01'0 0.0
2018-Jun-15 12:59N 50°06' W 125°01'0 0.0
2018-Jun-15 12:29N 50°06' W 125°01'0 0.0
2018-Jun-15 11:59N 50°06' W 125°01'0 0.0
2018-Jun-15 11:29N 50°06' W 125°01'0 0.0
2018-Jun-15 10:59N 50°06' W 125°01'0 0.0
2018-Jun-15 10:29N 50°06' W 125°01'0 0.0
2018-Jun-15 09:59N 50°06' W 125°01'0 0.0
2018-Jun-15 09:29N 50°06' W 125°01'0 0.0
2018-Jun-15 08:59N 50°06' W 125°01'0 0.0
2018-Jun-15 08:29N 50°06' W 125°01'0 0.0
2018-Jun-15 07:59N 50°06' W 125°01'0 0.0
2018-Jun-15 07:29N 50°06' W 125°01'0 0.0
2018-Jun-15 06:59N 50°06' W 125°01'0 0.0
2018-Jun-15 06:23N 50°06' W 125°01'0 0.0
2018-Jun-15 05:59N 50°06' W 125°01'0 0.0
2018-Jun-15 05:29N 50°06' W 125°01'0 0.0
2018-Jun-15 04:59N 50°06' W 125°01'0 0.0
2018-Jun-15 04:29N 50°06' W 125°01'0 0.0
2018-Jun-15 03:56N 50°06' W 125°01'0 0.0
2018-Jun-15 03:29N 50°06' W 125°01'0 0.0
2018-Jun-15 02:59N 50°06' W 125°01'0 0.0
2018-Jun-15 02:29N 50°06' W 125°01'0 0.0
2018-Jun-15 01:59N 50°06' W 125°01'0 0.0
2018-Jun-15 01:29N 50°06' W 125°01'0 0.0
2018-Jun-15 00:59N 50°06' W 125°01'0 0.0
2018-Jun-15 00:29N 50°06' W 125°01'0 0.0
2018-Jun-14 23:59N 50°06' W 125°01'0 0.0
2018-Jun-14 23:29N 50°06' W 125°01'2 3.7
2018-Jun-14 23:00N 50°04' W 125°01'510.0
2018-Jun-14 22:30N 49°59' W 125°00'611.0
2018-Jun-14 21:59N 49°55' W 124°53'610.7
2018-Jun-14 21:27N 49°54' W 124°45'510.3
2018-Jun-14 20:59N 49°53' W 124°38'67 2.6
2018-Jun-13 19:19N 49°19' W 123°08'  

Dump ship's entire track history